Time;durP1;ratioP1;P1;durP2;ratioP2;P2;SDS_P1;SDS_P2;PMS_P1;PMS_P2;Temp;Humidity;BMP_temperature;BMP_pressure;BME280_temperature;BME280_humidity;BME280_pressure;Samples;Min_cycle;Max_cycle;Signal;HPM_P1;HPM_P2
2022/03/04 00:01:10;;;;;;;7.30;5.30;;;;;;;20.65;38.56;100660.73;104437;1311;73894;-84
2022/03/04 00:04:27;;;;;;;;;;;;;;;;;;;;;
2022/03/04 00:07:08;;;;;;;7.20;5.30;;;;;;;20.65;38.57;100664.14;104377;1311;61269;-83
2022/03/04 00:09:48;;;;;;;;;;;;;;;;;;;;;
2022/03/04 00:12:28;;;;;;;7.00;5.00;;;;;;;20.66;38.58;100656.60;104499;1308;72697;-85
2022/03/04 00:15:13;;;;;;;6.60;5.10;;;;;;;20.66;38.29;100658.36;104393;1312;74866;-84
2022/03/04 00:18:02;;;;;;;7.40;5.20;;;;;;;20.66;38.49;100656.91;104139;1311;61365;-83
2022/03/04 00:20:51;;;;;;;;;;;;;;;;;;;;;
2022/03/04 00:23:37;;;;;;;6.90;5.10;;;;;;;20.66;38.43;100656.21;104367;1311;72921;-81
2022/03/04 00:26:12;;;;;;;7.50;5.20;;;;;;;20.66;38.50;100661.96;104315;1311;75277;-84
2022/03/04 00:29:00;;;;;;;;;;;;;;;;;;;;;
2022/03/04 00:31:47;;;;;;;6.10;4.90;;;;;;;20.66;38.50;100665.50;104511;1308;61265;-82
2022/03/04 00:34:15;;;;;;;6.40;5.10;;;;;;;20.66;38.44;100663.16;104475;1309;73634;-84
2022/03/04 00:36:53;;;;;;;7.10;4.90;;;;;;;20.67;38.54;100665.09;104349;1311;76052;-84
2022/03/04 00:39:19;;;;;;;6.50;5.00;;;;;;;20.67;38.60;100667.44;104451;1309;61288;-78
2022/03/04 00:41:57;;;;;;;7.10;5.10;;;;;;;20.67;38.50;100671.36;104420;1308;61335;-87
2022/03/04 00:44:37;;;;;;;7.00;5.00;;;;;;;20.68;38.50;100670.23;104405;1309;74140;-84
2022/03/04 00:47:42;;;;;;;6.90;4.60;;;;;;;20.67;38.42;100671.52;104442;1308;76204;-85
2022/03/04 00:50:18;;;;;;;5.90;4.50;;;;;;;20.67;38.68;100665.05;104394;1311;62179;-79
2022/03/04 00:53:06;;;;;;;6.40;4.80;;;;;;;20.68;38.61;100670.03;104456;1308;61878;-84
2022/03/04 00:55:48;;;;;;;7.40;5.00;;;;;;;20.68;38.64;100666.63;104300;1309;73965;-84
2022/03/04 00:58:37;;;;;;;6.30;5.00;;;;;;;20.68;38.75;100663.57;104382;1308;76198;-83
2022/03/04 01:01:05;;;;;;;7.00;4.90;;;;;;;20.68;38.77;100655.17;104328;1312;61240;-83
2022/03/04 01:04:11;;;;;;;;;;;;;;;;;;;;;
2022/03/04 01:07:06;;;;;;;6.10;4.30;;;;;;;20.69;38.65;100654.06;104165;1315;74285;-85
2022/03/04 01:09:54;;;;;;;5.80;4.60;;;;;;;20.69;38.53;100653.34;104176;1315;75593;-84
2022/03/04 01:12:35;;;;;;;7.20;4.50;;;;;;;20.70;38.73;100651.30;104186;1314;61141;-83
2022/03/04 01:15:19;;;;;;;7.10;4.50;;;;;;;20.70;38.70;100648.60;104073;1314;61589;-84
2022/03/04 01:17:56;;;;;;;7.20;4.60;;;;;;;20.70;38.85;100642.71;104170;1314;72842;-85
2022/03/04 01:20:32;;;;;;;6.40;5.00;;;;;;;20.71;38.69;100638.37;104119;1315;75066;-84
2022/03/04 01:23:20;;;;;;;6.30;4.50;;;;;;;20.71;38.66;100635.12;104132;1315;61460;-83
2022/03/04 01:25:52;;;;;;;6.40;4.60;;;;;;;20.71;38.69;100631.72;103665;1319;61165;-83
2022/03/04 01:28:30;;;;;;;6.20;4.40;;;;;;;20.71;38.58;100632.25;103674;1319;72930;-85
2022/03/04 01:31:21;;;;;;;6.30;4.70;;;;;;;20.71;38.61;100632.79;103735;1319;75913;-84
2022/03/04 01:34:03;;;;;;;6.70;4.70;;;;;;;20.71;38.70;100631.73;103694;1318;61461;-80
2022/03/04 01:36:33;;;;;;;6.60;4.40;;;;;;;20.71;38.81;100633.34;103771;1318;61525;-86
2022/03/04 01:39:02;;;;;;;6.00;4.30;;;;;;;20.71;38.61;100633.85;103591;1319;73335;-82
2022/03/04 01:41:42;;;;;;;6.50;5.00;;;;;;;20.72;38.56;100637.74;103562;1319;74930;-83
2022/03/04 01:44:21;;;;;;;6.90;5.00;;;;;;;20.72;38.66;100636.11;103751;1316;61621;-83
2022/03/04 01:47:27;;;;;;;6.20;4.80;;;;;;;20.72;38.65;100632.01;104175;1316;61214;-82
2022/03/04 01:50:09;;;;;;;;;;;;;;;;;;;;;
2022/03/04 01:52:40;;;;;;;6.70;4.80;;;;;;;20.72;38.79;100634.55;103961;1317;74946;-84
2022/03/04 01:55:09;;;;;;;6.30;4.80;;;;;;;20.72;38.69;100632.54;103900;1316;60417;-83
2022/03/04 01:57:46;;;;;;;6.30;4.60;;;;;;;20.72;38.74;100631.29;103969;1317;61375;-82
2022/03/04 02:00:17;;;;;;;6.50;4.30;;;;;;;20.73;38.76;100631.80;103932;1317;72841;-82
2022/03/04 02:02:48;;;;;;;5.80;4.60;;;;;;;20.72;38.81;100626.80;104048;1311;75789;-84
2022/03/04 02:05:30;;;;;;;6.70;4.40;;;;;;;20.72;38.77;100629.68;104521;1310;61189;-86
2022/03/04 02:08:28;;;;;;;6.10;4.40;;;;;;;20.72;38.58;100633.80;104451;1310;61176;-81
2022/03/04 02:11:03;;;;;;;6.20;4.50;;;;;;;20.73;38.61;100641.30;104483;1310;73829;-82
2022/03/04 02:13:33;;;;;;;6.50;4.60;;;;;;;20.73;38.83;100641.10;104306;1311;76095;-81
2022/03/04 02:16:09;;;;;;;6.10;4.70;;;;;;;20.73;38.69;100643.77;104360;1310;61237;-79
2022/03/04 02:18:41;;;;;;;7.90;4.70;;;;;;;20.73;38.69;100644.99;104240;1311;61226;-82
2022/03/04 02:21:16;;;;;;;5.90;4.80;;;;;;;20.73;38.75;100650.38;104352;1310;73005;-84
2022/03/04 02:23:45;;;;;;;6.30;4.60;;;;;;;20.74;38.84;100651.57;104396;1310;76087;-83
2022/03/04 02:26:19;;;;;;;6.10;4.40;;;;;;;20.74;38.88;100655.51;104405;1311;61177;-85
2022/03/04 02:28:54;;;;;;;6.30;4.60;;;;;;;20.74;38.76;100660.67;104418;1312;61272;-83
2022/03/04 02:31:27;;;;;;;5.70;4.40;;;;;;;20.74;38.84;100661.17;104423;1310;74085;-85
2022/03/04 02:33:54;;;;;;;5.90;4.90;;;;;;;20.74;38.64;100664.60;104412;1310;61268;-83
2022/03/04 02:36:28;;;;;;;5.70;4.20;;;;;;;20.75;38.66;100664.71;104432;1310;61257;-84
2022/03/04 02:39:14;;;;;;;6.10;4.60;;;;;;;20.74;38.71;100667.27;104477;1310;61402;-83
2022/03/04 02:41:40;;;;;;;6.10;4.50;;;;;;;20.74;38.80;100667.81;104397;1308;72833;-87
2022/03/04 02:44:38;;;;;;;7.30;4.50;;;;;;;20.75;38.66;100670.82;104407;1309;73531;-83
2022/03/04 02:47:12;;;;;;;6.60;4.60;;;;;;;20.75;38.64;100673.67;104437;1309;61258;-82
2022/03/04 02:49:50;;;;;;;6.00;4.50;;;;;;;20.75;38.72;100669.92;104498;1308;61309;-81
2022/03/04 02:52:18;;;;;;;5.60;4.40;;;;;;;20.75;38.87;100677.41;104416;1308;72794;-85
2022/03/04 02:55:10;;;;;;;6.70;4.30;;;;;;;20.75;38.72;100679.92;104494;1309;61317;-84
2022/03/04 02:57:49;;;;;;;6.30;4.80;;;;;;;20.75;38.77;100678.64;104461;1309;61298;-84
2022/03/04 03:00:35;;;;;;;;;;;;;;;;;;;;;
2022/03/04 03:03:13;;;;;;;5.70;4.20;;;;;;;20.76;38.94;100669.31;104531;1308;73862;-81
2022/03/04 03:06:00;;;;;;;7.10;4.40;;;;;;;20.76;38.86;100672.66;104478;1309;75951;-81
2022/03/04 03:08:29;;;;;;;5.40;4.20;;;;;;;20.76;38.84;100671.42;104405;1309;61176;-82
2022/03/04 03:11:27;;;;;;;5.70;4.20;;;;;;;20.76;38.74;100669.08;104417;1308;61109;-83
2022/03/04 03:14:00;;;;;;;5.90;4.40;;;;;;;20.77;38.86;100670.69;104338;1311;73703;-83
2022/03/04 03:16:46;;;;;;;5.30;4.00;;;;;;;20.77;38.80;100674.07;104237;1311;76388;-83
2022/03/04 03:19:22;;;;;;;5.50;4.00;;;;;;;20.77;38.86;100677.25;104313;1311;61177;-83
2022/03/04 03:21:51;;;;;;;5.60;4.10;;;;;;;20.78;38.84;100680.27;104377;1312;61178;-81
2022/03/04 03:24:19;;;;;;;6.30;4.40;;;;;;;20.78;38.80;100677.94;104412;1309;72726;-82
2022/03/04 03:27:02;;;;;;;5.90;4.50;;;;;;;20.78;38.80;100675.58;104392;1311;74771;-82
2022/03/04 03:29:47;;;;;;;;;;;;;;;;;;;;;
2022/03/04 03:32:16;;;;;;;6.00;4.40;;;;;;;20.79;38.85;100673.41;104453;1308;61265;-83
2022/03/04 03:35:07;;;;;;;5.70;4.50;;;;;;;20.79;38.78;100674.83;104286;1309;72862;-81
2022/03/04 03:37:37;;;;;;;5.40;4.30;;;;;;;20.79;38.62;100672.46;104323;1311;74858;-83
2022/03/04 03:40:19;;;;;;;5.70;4.40;;;;;;;20.79;38.85;100668.36;104380;1311;61231;-84
2022/03/04 03:42:50;;;;;;;6.30;4.60;;;;;;;20.79;38.74;100667.81;104496;1309;61182;-84
2022/03/04 03:45:39;;;;;;;5.90;4.40;;;;;;;20.80;38.90;100667.44;103873;1316;70387;-80
2022/03/04 03:48:22;;;;;;;;;;;;;;;;;;;;;
2022/03/04 03:51:09;;;;;;;7.10;4.40;;;;;;;20.80;38.66;100669.56;104094;1316;61337;-81
2022/03/04 03:53:46;;;;;;;5.90;4.30;;;;;;;20.80;38.75;100668.11;104007;1317;61303;-84
2022/03/04 03:56:26;;;;;;;7.00;4.30;;;;;;;20.81;38.67;100669.32;103869;1317;73253;-83
2022/03/04 03:58:55;;;;;;;5.70;4.30;;;;;;;20.81;38.83;100668.21;104142;1316;74949;-82
2022/03/04 04:01:40;;;;;;;6.20;4.60;;;;;;;20.81;38.73;100667.52;103887;1316;61195;-80
2022/03/04 04:04:34;;;;;;;7.70;4.30;;;;;;;20.81;38.66;100665.00;104202;1314;61736;-82
2022/03/04 04:07:26;;;;;;;5.80;4.70;;;;;;;20.81;38.72;100664.50;104162;1316;73880;-83
2022/03/04 04:09:54;;;;;;;6.20;4.50;;;;;;;20.80;38.71;100660.41;104066;1316;74875;-82
2022/03/04 04:12:39;;;;;;;6.20;4.20;;;;;;;20.81;38.56;100661.09;104122;1316;61293;-83
2022/03/04 04:15:10;;;;;;;5.90;4.40;;;;;;;20.81;38.68;100665.35;104150;1314;61321;-82
2022/03/04 04:17:58;;;;;;;6.70;4.50;;;;;;;20.81;38.52;100665.02;104189;1314;72843;-85
2022/03/04 04:20:47;;;;;;;5.40;4.00;;;;;;;20.82;38.50;100661.89;104058;1314;73652;-84
2022/03/04 04:23:26;;;;;;;5.50;4.00;;;;;;;20.82;38.65;100663.67;104211;1311;61893;-84
2022/03/04 04:26:06;;;;;;;6.60;4.80;;;;;;;20.83;38.57;100660.41;104360;1311;61679;-85
2022/03/04 04:28:55;;;;;;;6.00;4.20;;;;;;;20.83;38.57;100657.34;104443;1308;73781;-84
2022/03/04 04:31:41;;;;;;;6.50;4.40;;;;;;;20.84;38.66;100657.98;104323;1311;74885;-83
2022/03/04 04:34:07;;;;;;;5.40;4.30;;;;;;;20.84;38.55;100657.48;104350;1311;61348;-82
2022/03/04 04:36:42;;;;;;;5.70;4.50;;;;;;;20.85;38.68;100656.84;104355;1311;61462;-79
2022/03/04 04:39:16;;;;;;;5.60;4.10;;;;;;;20.85;38.54;100655.38;104250;1309;72860;-83
2022/03/04 04:42:23;;;;;;;5.60;4.00;;;;;;;20.85;38.57;100655.45;104458;1309;73661;-88
2022/03/04 04:44:51;;;;;;;5.90;4.10;;;;;;;20.85;38.81;100654.18;104410;1311;61533;-83
2022/03/04 04:47:29;;;;;;;5.80;4.50;;;;;;;20.85;38.65;100657.55;104436;1311;61161;-86
2022/03/04 04:50:05;;;;;;;6.40;4.70;;;;;;;20.85;38.68;100655.91;104413;1310;72693;-83
2022/03/04 04:52:36;;;;;;;5.80;4.40;;;;;;;20.85;38.68;100656.48;104389;1309;75890;-79
2022/03/04 04:55:46;;;;;;;5.70;4.40;;;;;;;20.85;38.68;100659.86;104443;1310;61407;-85
2022/03/04 04:58:12;;;;;;;5.90;4.20;;;;;;;20.85;38.61;100660.25;103021;1323;61205;-82
2022/03/04 05:00:41;;;;;;;5.40;4.30;;;;;;;20.85;38.62;100663.29;102658;1322;61195;-80
2022/03/04 05:03:16;;;;;;;6.40;4.50;;;;;;;20.86;38.68;100671.11;102873;1323;74859;-82
2022/03/04 05:05:42;;;;;;;6.00;4.50;;;;;;;20.86;38.65;100679.32;102801;1325;61204;-81
2022/03/04 05:08:08;;;;;;;5.80;4.40;;;;;;;20.87;38.69;100684.25;102651;1325;61467;-83
2022/03/04 05:10:38;;;;;;;6.30;4.50;;;;;;;20.87;38.61;100689.08;102996;1323;61350;-80
2022/03/04 05:13:23;;;;;;;5.60;4.30;;;;;;;20.87;38.61;100690.89;102936;1322;75392;-82
2022/03/04 05:16:00;;;;;;;5.50;4.20;;;;;;;20.88;38.59;100693.13;102886;1323;61338;-83
2022/03/04 05:18:38;;;;;;;7.70;4.50;;;;;;;20.88;38.59;100696.67;103019;1323;61753;-84
2022/03/04 05:21:16;;;;;;;6.10;4.50;;;;;;;20.87;38.59;100696.27;103070;1320;73758;-82
2022/03/04 05:24:06;;;;;;;7.00;5.00;;;;;;;20.87;38.50;100691.91;103051;1323;61422;-80
2022/03/04 05:26:36;;;;;;;6.80;5.10;;;;;;;20.85;38.26;100695.30;102869;1323;61304;-81
2022/03/04 05:29:09;;;;;;;8.00;5.70;;;;;;;20.82;38.00;100695.13;103156;1317;61221;-82
2022/03/04 05:31:55;;;;;;;7.10;5.00;;;;;;;20.79;37.65;100691.77;102971;1323;71536;-83
2022/03/04 05:34:26;;;;;;;8.20;5.50;;;;;;;20.78;37.33;100694.20;102909;1323;61421;-85
2022/03/04 05:36:54;;;;;;;7.50;5.90;;;;;;;20.76;37.12;100697.58;103467;1314;61334;-81
2022/03/04 05:39:23;;;;;;;7.40;5.30;;;;;;;20.72;36.81;100705.70;104054;1314;61329;-81
2022/03/04 05:41:51;;;;;;;10.30;6.20;;;;;;;20.67;36.42;100713.53;103509;1317;70475;-81
2022/03/04 05:44:17;;;;;;;8.40;6.10;;;;;;;20.61;35.91;100717.15;103662;1316;74820;-81
2022/03/04 05:46:43;;;;;;;7.80;5.90;;;;;;;20.55;35.90;100727.39;103468;1315;61423;-80
2022/03/04 05:49:15;;;;;;;7.30;5.80;;;;;;;20.49;35.29;100732.50;103533;1314;61419;-80
2022/03/04 05:51:41;;;;;;;8.40;6.00;;;;;;;20.43;35.31;100734.38;103326;1314;61265;-83
2022/03/04 05:54:06;;;;;;;8.70;6.30;;;;;;;20.36;35.07;100737.36;103298;1314;61406;-80
2022/03/04 05:56:32;;;;;;;9.90;6.80;;;;;;;20.30;34.83;100739.75;103225;1314;61318;-79
2022/03/04 05:58:57;;;;;;;11.80;7.50;;;;;;;20.21;34.56;100740.13;103266;1314;61288;-80
2022/03/04 06:01:23;;;;;;;13.30;7.30;;;;;;;20.12;34.54;100742.38;102996;1314;61235;-80
2022/03/04 06:03:48;;;;;;;13.50;7.00;;;;;;;20.07;34.41;100744.27;103227;1315;61281;-80
2022/03/04 06:06:14;;;;;;;14.40;7.00;;;;;;;20.05;34.30;100746.05;102814;1317;62267;-80
2022/03/04 06:08:40;;;;;;;9.30;7.00;;;;;;;20.03;34.19;100746.55;103290;1309;61500;-79
2022/03/04 06:11:09;;;;;;;10.90;6.40;;;;;;;20.02;34.09;100746.26;103627;1309;61214;-80
2022/03/04 06:13:36;;;;;;;11.40;7.10;;;;;;;20.03;34.10;100747.80;104219;1309;61311;-80
2022/03/04 06:16:02;;;;;;;9.30;6.20;;;;;;;20.05;33.85;100749.23;103858;1308;61364;-80
2022/03/04 06:18:28;;;;;;;10.50;6.70;;;;;;;20.10;33.88;100752.52;103931;1308;61157;-80
2022/03/04 06:20:54;;;;;;;11.20;6.00;;;;;;;20.15;33.67;100752.36;103872;1309;61330;-79
2022/03/04 06:23:21;;;;;;;12.40;6.10;;;;;;;20.20;33.63;100751.48;103835;1308;61328;-79
2022/03/04 06:25:47;;;;;;;13.90;6.20;;;;;;;20.24;33.44;100750.32;103814;1309;61326;-80
2022/03/04 06:28:13;;;;;;;7.10;5.30;;;;;;;20.29;33.53;100754.29;103716;1308;61321;-80
2022/03/04 06:30:38;;;;;;;10.10;5.60;;;;;;;20.32;33.56;100757.78;103911;1306;61281;-80
2022/03/04 06:35:49;;;;;;;10.40;5.40;;;;;;;20.40;33.49;100763.13;104011;1309;75942;-78
2022/03/04 06:38:14;;;;;;;10.00;5.30;;;;;;;20.44;33.49;100766.09;103794;1308;61280;-80
2022/03/04 06:40:40;;;;;;;10.10;5.20;;;;;;;20.47;33.67;100766.80;103628;1308;61314;-79
2022/03/04 06:43:06;;;;;;;12.20;5.60;;;;;;;20.49;33.66;100772.16;103666;1309;61350;-81
2022/03/04 06:45:32;;;;;;;11.00;4.90;;;;;;;20.52;33.68;100773.76;104245;1308;61415;-79
2022/03/04 06:47:58;;;;;;;9.20;5.20;;;;;;;20.54;33.66;100779.34;103619;1309;187590;-80
2022/03/04 06:50:23;;;;;;;9.30;5.20;;;;;;;20.56;33.72;100784.00;103643;1308;61192;-81
2022/03/04 06:52:51;;;;;;;8.90;5.10;;;;;;;20.55;33.75;100780.19;103488;1309;61449;-80
2022/03/04 06:55:16;;;;;;;11.60;6.80;;;;;;;20.53;33.56;100779.23;103383;1309;61658;-80
2022/03/04 06:57:42;;;;;;;12.40;9.20;;;;;;;20.39;33.18;100785.02;103597;1309;62667;-79
2022/03/04 07:00:10;;;;;;;12.10;6.60;;;;;;;20.05;32.72;100784.15;103422;1308;61294;-79
2022/03/04 07:02:37;;;;;;;15.90;7.40;;;;;;;19.94;33.25;100780.36;104970;1308;61696;-79
2022/03/04 07:05:04;;;;;;;20.20;7.20;;;;;;;19.96;33.39;100784.17;104490;1309;61288;-79
2022/03/04 07:07:29;;;;;;;14.90;6.10;;;;;;;20.01;33.52;100785.84;105095;1309;75897;-79
2022/03/04 07:09:56;;;;;;;25.40;6.40;;;;;;;20.08;33.73;100786.39;104731;1309;60683;-81
2022/03/04 07:12:21;;;;;;;11.50;6.00;;;;;;;20.15;33.92;100784.84;104663;1309;61291;-80
2022/03/04 07:14:48;;;;;;;13.20;6.30;;;;;;;20.22;33.94;100789.21;103771;1309;61307;-80
2022/03/04 07:17:15;;;;;;;12.60;6.30;;;;;;;20.28;33.71;100792.42;103826;1309;61651;-83
2022/03/04 07:19:41;;;;;;;9.80;5.20;;;;;;;20.32;33.75;100793.17;103882;1308;61381;-81
2022/03/04 07:22:07;;;;;;;13.30;6.00;;;;;;;20.37;33.75;100792.47;103771;1309;61268;-81
2022/03/04 07:24:34;;;;;;;9.40;5.90;;;;;;;20.41;33.53;100795.44;103899;1309;61313;-80
2022/03/04 07:27:00;;;;;;;10.80;5.90;;;;;;;20.45;33.54;100793.73;103738;1308;62270;-81
2022/03/04 07:29:26;;;;;;;10.50;5.60;;;;;;;20.48;33.78;100793.52;103849;1307;61288;-81
2022/03/04 07:31:53;;;;;;;11.10;5.60;;;;;;;20.51;33.63;100795.46;103749;1308;61289;-80
2022/03/04 07:34:21;;;;;;;8.20;5.50;;;;;;;20.53;33.52;100796.02;103597;1309;61752;-80
2022/03/04 07:36:49;;;;;;;10.50;5.80;;;;;;;20.56;33.44;100799.78;103635;1309;61164;-79
2022/03/04 07:39:14;;;;;;;9.00;6.40;;;;;;;20.58;33.39;100802.13;103798;1308;61326;-80
2022/03/04 07:41:40;;;;;;;11.20;5.80;;;;;;;20.59;33.37;100802.05;103827;1309;61321;-81
2022/03/04 07:44:05;;;;;;;8.60;5.70;;;;;;;20.60;33.35;100810.23;103756;1309;61741;-81
2022/03/04 07:46:31;;;;;;;9.30;5.70;;;;;;;20.61;33.27;100808.55;103665;1309;61261;-80
2022/03/04 07:48:57;;;;;;;8.40;5.90;;;;;;;20.61;33.19;100806.21;103664;1309;61462;-80
2022/03/04 07:51:23;;;;;;;9.70;6.80;;;;;;;20.61;32.95;100811.39;103553;1308;61304;-80
2022/03/04 07:53:48;;;;;;;14.40;8.20;;;;;;;20.57;32.97;100811.13;103427;1309;63015;-83
2022/03/04 07:56:14;;;;;;;12.50;6.20;;;;;;;20.45;32.76;100812.17;103403;1308;61408;-78
2022/03/04 07:58:40;;;;;;;11.70;7.00;;;;;;;20.37;33.24;100810.73;103470;1308;61273;-79
2022/03/04 08:01:05;;;;;;;13.40;6.30;;;;;;;20.34;33.13;100815.58;103406;1309;62110;-80
2022/03/04 08:03:32;;;;;;;12.20;6.50;;;;;;;20.33;33.13;100811.70;103543;1309;61282;-81
2022/03/04 08:06:23;;;;;;;9.50;6.90;;;;;;;20.33;33.15;100816.36;103693;1309;61277;-80
2022/03/04 08:08:48;;;;;;;13.80;6.60;;;;;;;20.32;33.25;100809.27;103227;1315;74954;-79
2022/03/04 08:11:14;;;;;;;12.10;6.30;;;;;;;20.33;33.20;100816.04;103153;1315;61504;-80
2022/03/04 08:13:41;;;;;;;12.50;6.40;;;;;;;20.35;33.34;100815.89;103426;1314;61433;-80
2022/03/04 08:16:06;;;;;;;14.30;7.30;;;;;;;20.37;33.36;100815.33;103051;1315;61400;-80
2022/03/04 08:18:32;;;;;;;14.70;7.40;;;;;;;20.40;33.48;100817.64;103124;1314;61492;-80
2022/03/04 08:20:59;;;;;;;15.70;6.90;;;;;;;20.43;33.34;100817.13;103049;1315;61299;-80
2022/03/04 08:23:25;;;;;;;12.50;7.30;;;;;;;20.46;33.48;100812.67;103893;1315;60305;-80
2022/03/04 08:25:51;;;;;;;13.20;7.90;;;;;;;20.48;33.18;100815.02;103609;1315;61308;-80
2022/03/04 08:28:18;;;;;;;13.20;6.80;;;;;;;20.50;33.20;100817.88;102989;1315;61344;-80
2022/03/04 08:30:43;;;;;;;13.50;6.80;;;;;;;20.53;33.23;100816.25;103211;1314;61403;-80
2022/03/04 08:33:14;;;;;;;9.70;6.30;;;;;;;20.55;33.23;100812.52;103216;1315;61453;-80
2022/03/04 08:35:41;;;;;;;14.60;7.20;;;;;;;20.59;33.08;100816.76;103201;1315;61293;-79
2022/03/04 08:38:09;;;;;;;12.90;7.10;;;;;;;20.60;33.09;100812.39;102896;1315;72847;-79
2022/03/04 08:40:35;;;;;;;11.00;6.40;;;;;;;20.62;33.01;100812.45;102899;1317;74921;-80
2022/03/04 08:43:01;;;;;;;10.90;6.70;;;;;;;20.63;33.08;100809.31;103054;1315;61106;-80
2022/03/04 08:45:27;;;;;;;11.10;6.30;;;;;;;20.65;33.03;100809.52;102971;1311;61328;-81
2022/03/04 08:47:53;;;;;;;10.10;6.50;;;;;;;20.67;33.05;100809.23;103389;1307;61152;-79
2022/03/04 08:50:21;;;;;;;14.20;6.90;;;;;;;20.70;33.15;100810.98;103362;1311;61296;-80
2022/03/04 08:52:48;;;;;;;16.20;6.70;;;;;;;20.73;32.97;100810.64;103159;1309;61318;-84
2022/03/04 08:55:17;;;;;;;9.70;6.80;;;;;;;20.74;32.87;100808.41;103188;1308;61484;-81
2022/03/04 08:57:46;;;;;;;14.00;7.50;;;;;;;20.73;32.87;100812.23;104373;1308;72867;-81
2022/03/04 09:00:14;;;;;;;14.50;8.20;;;;;;;20.55;32.84;100812.70;103201;1311;74722;-80
2022/03/04 09:02:40;;;;;;;10.20;7.00;;;;;;;20.42;33.06;100815.58;102963;1307;61250;-80
2022/03/04 09:05:06;;;;;;;12.60;8.00;;;;;;;20.39;33.18;100814.33;103534;1309;61389;-80
2022/03/04 09:07:32;;;;;;;15.00;7.80;;;;;;;20.32;33.24;100813.94;103541;1311;61297;-81
2022/03/04 09:09:58;;;;;;;16.00;7.60;;;;;;;20.27;33.36;100812.98;103437;1309;61218;-79
2022/03/04 09:12:23;;;;;;;15.90;8.00;;;;;;;20.29;33.57;100814.66;103520;1309;61422;-82
2022/03/04 09:14:49;;;;;;;13.90;6.70;;;;;;;20.32;33.40;100812.14;103560;1309;61289;-80
2022/03/04 09:17:15;;;;;;;16.30;7.10;;;;;;;20.36;33.63;100811.30;103586;1309;61336;-81
2022/03/04 09:20:05;;;;;;;24.10;6.70;;;;;;;20.41;33.81;100813.33;103504;1309;71998;-81
2022/03/04 09:22:31;;;;;;;19.70;7.00;;;;;;;20.46;33.52;100816.94;102925;1317;75053;-81
2022/03/04 09:24:56;;;;;;;16.10;7.10;;;;;;;20.48;33.65;100820.18;103007;1314;61370;-80
2022/03/04 09:27:24;;;;;;;12.10;6.70;;;;;;;20.50;33.73;100818.04;103011;1315;61506;-81
2022/03/04 09:29:49;;;;;;;18.30;6.80;;;;;;;20.53;33.61;100820.52;103020;1314;61529;-81
2022/03/04 09:32:15;;;;;;;13.00;6.70;;;;;;;20.56;33.60;100817.31;102916;1316;63351;-80
2022/03/04 09:34:41;;;;;;;13.90;6.80;;;;;;;20.58;33.38;100814.99;102866;1315;61495;-81
2022/03/04 09:37:06;;;;;;;12.20;6.00;;;;;;;20.60;33.34;100813.45;103008;1317;61320;-81
2022/03/04 09:39:34;;;;;;;12.80;6.60;;;;;;;20.62;33.23;100810.31;102919;1316;61335;-80
2022/03/04 09:41:59;;;;;;;9.60;6.20;;;;;;;20.64;33.29;100807.46;103066;1315;72712;-81
2022/03/04 09:44:25;;;;;;;14.00;6.20;;;;;;;20.66;33.38;100808.39;103198;1315;61417;-80
2022/03/04 09:46:51;;;;;;;14.30;6.40;;;;;;;20.68;33.51;100804.48;103206;1316;61433;-80
2022/03/04 09:49:16;;;;;;;13.30;6.90;;;;;;;20.69;33.49;100801.95;103099;1314;62186;-80
2022/03/04 09:51:42;;;;;;;14.40;7.50;;;;;;;20.69;33.52;100798.34;102913;1315;61292;-79
2022/03/04 09:54:10;;;;;;;15.40;8.50;;;;;;;20.64;32.97;100802.48;102848;1314;61347;-80
2022/03/04 09:56:36;;;;;;;15.90;8.80;;;;;;;20.35;32.45;100799.08;102958;1314;74104;-80
2022/03/04 09:59:02;;;;;;;16.80;8.70;;;;;;;20.07;32.39;100798.95;102817;1310;61468;-82
2022/03/04 10:01:27;;;;;;;21.10;7.70;;;;;;;19.80;32.26;100797.90;103403;1308;61304;-81
2022/03/04 10:03:54;;;;;;;22.90;8.40;;;;;;;19.72;33.06;100796.05;103247;1308;61327;-80
2022/03/04 10:06:20;;;;;;;25.60;8.20;;;;;;;19.76;33.17;100795.83;103366;1308;61435;-80
2022/03/04 10:08:48;;;;;;;21.10;7.90;;;;;;;19.80;33.70;100794.87;105029;1308;59318;-80
2022/03/04 10:11:23;;;;;;;22.10;7.50;;;;;;;19.87;33.96;100789.56;105060;1307;59488;-80
2022/03/04 10:13:51;;;;;;;16.50;7.40;;;;;;;19.93;34.32;100792.54;105072;1309;73938;-81
2022/03/04 10:16:29;;;;;;;17.20;8.10;;;;;;;19.96;34.35;100792.38;105031;1309;76401;-80
2022/03/04 10:19:18;;;;;;;16.70;7.90;;;;;;;19.99;34.25;100791.81;105052;1307;60320;-81
2022/03/04 10:22:04;;;;;;;13.00;7.50;;;;;;;20.01;34.42;100790.61;105111;1309;60461;-80
2022/03/04 10:24:35;;;;;;;24.00;8.00;;;;;;;20.06;34.42;100788.11;104039;1316;72952;-80
2022/03/04 10:27:12;;;;;;;15.40;7.90;;;;;;;20.11;34.39;100783.71;102735;1317;75855;-81
2022/03/04 10:29:39;;;;;;;17.30;7.40;;;;;;;20.13;34.26;100784.14;102860;1317;61404;-80
2022/03/04 10:32:05;;;;;;;12.90;7.20;;;;;;;20.14;33.91;100778.85;103040;1315;61201;-79
2022/03/04 10:35:06;;;;;;;12.10;7.10;;;;;;;20.15;33.93;100778.61;103334;1316;61350;-84
2022/03/04 10:37:54;;;;;;;14.10;6.90;;;;;;;20.16;33.75;100773.03;102769;1320;75681;-83
2022/03/04 10:40:31;;;;;;;11.30;7.30;;;;;;;20.17;33.74;100772.04;102760;1320;61443;-81
2022/03/04 10:43:01;;;;;;;18.00;6.90;;;;;;;20.19;33.68;100771.89;102757;1320;61237;-80
2022/03/04 10:45:34;;;;;;;12.40;8.00;;;;;;;20.21;33.82;100770.36;102767;1319;74626;-84
2022/03/04 10:48:11;;;;;;;15.50;7.90;;;;;;;20.22;33.62;100773.88;103110;1317;73567;-81
2022/03/04 10:50:50;;;;;;;19.80;8.60;;;;;;;20.22;33.34;100768.67;102794;1320;61689;-82
2022/03/04 10:53:22;;;;;;;19.70;9.30;;;;;;;20.19;33.12;100767.59;102686;1318;61507;-80
2022/03/04 10:55:58;;;;;;;18.70;8.70;;;;;;;19.98;32.64;100761.52;102400;1317;73606;-81
2022/03/04 10:58:25;;;;;;;13.80;7.80;;;;;;;19.84;32.91;100755.49;102547;1318;74033;-80
2022/03/04 11:00:58;;;;;;;12.50;8.20;;;;;;;19.82;32.82;100756.17;102528;1318;61317;-80
2022/03/04 11:03:31;;;;;;;12.40;8.00;;;;;;;19.71;32.86;100753.81;103304;1311;61512;-82
2022/03/04 11:05:59;;;;;;;14.90;8.10;;;;;;;19.74;32.87;100753.45;103414;1312;73216;-80
2022/03/04 11:08:24;;;;;;;16.60;7.30;;;;;;;19.82;32.94;100753.33;105108;1306;77451;-80
2022/03/04 11:10:52;;;;;;;14.50;7.20;;;;;;;19.89;32.86;100753.02;103698;1309;61246;-81
2022/03/04 11:13:18;;;;;;;10.90;5.70;;;;;;;19.97;32.93;100753.92;103860;1306;61180;-80
2022/03/04 11:15:44;;;;;;;14.10;6.70;;;;;;;20.05;33.02;100750.52;103561;1308;61270;-79
2022/03/04 11:18:11;;;;;;;13.50;6.00;;;;;;;20.06;33.01;100753.45;103918;1309;61275;-80
2022/03/04 11:20:38;;;;;;;13.70;7.10;;;;;;;20.08;33.03;100747.64;103436;1309;61225;-80
2022/03/04 11:23:04;;;;;;;13.70;7.10;;;;;;;20.12;33.03;100746.29;103564;1309;61596;-80
2022/03/04 11:25:41;;;;;;;10.00;6.60;;;;;;;20.17;32.99;100740.06;103447;1309;61261;-81
2022/03/04 11:28:17;;;;;;;10.70;6.80;;;;;;;20.23;32.75;100735.53;103500;1309;74792;-80
2022/03/04 11:31:06;;;;;;;11.50;6.10;;;;;;;20.24;32.58;100730.94;104471;1309;61141;-80
2022/03/04 11:33:33;;;;;;;11.60;6.00;;;;;;;20.25;32.80;100731.78;103056;1314;61772;-81
2022/03/04 11:36:18;;;;;;;12.80;6.40;;;;;;;20.26;32.55;100726.02;103026;1314;72854;-80
2022/03/04 11:38:43;;;;;;;8.90;5.70;;;;;;;20.26;32.52;100727.45;103122;1315;76102;-79
2022/03/04 11:41:10;;;;;;;9.20;6.00;;;;;;;20.26;32.52;100728.02;103344;1314;61377;-79
2022/03/04 11:43:48;;;;;;;11.20;6.40;;;;;;;20.25;32.45;100725.37;103044;1316;61204;-80
2022/03/04 11:46:26;;;;;;;11.90;6.50;;;;;;;20.23;32.39;100726.74;103170;1314;73162;-81
2022/03/04 11:49:29;;;;;;;16.40;7.80;;;;;;;20.21;32.24;100728.56;102937;1316;75848;-80
2022/03/04 11:52:11;;;;;;;16.90;7.90;;;;;;;20.09;31.84;100726.80;102948;1314;61716;-80
2022/03/04 11:54:38;;;;;;;10.70;7.10;;;;;;;19.89;31.51;100722.66;102819;1316;61311;-80
2022/03/04 11:57:23;;;;;;;13.70;7.80;;;;;;;19.63;31.71;100718.44;104606;1312;73253;-82